createdAt,value
2019-03-03T00:02:02.549Z,99.90
2019-03-03T00:04:32.847Z,99.90
2019-03-03T00:07:03.068Z,99.90
2019-03-03T00:09:33.310Z,99.90
2019-03-03T00:12:03.513Z,99.90
2019-03-03T00:14:33.688Z,99.90
2019-03-03T00:17:03.971Z,99.90
2019-03-03T00:19:34.152Z,99.90
2019-03-03T00:22:04.300Z,99.90
2019-03-03T00:24:34.638Z,99.90
2019-03-03T00:27:04.838Z,99.90
2019-03-03T00:29:34.955Z,99.90
2019-03-03T00:32:05.362Z,99.90
2019-03-03T00:34:35.656Z,99.90
2019-03-03T00:37:23.861Z,99.90
2019-03-03T00:40:19.375Z,99.90
2019-03-03T00:43:01.679Z,99.90
2019-03-03T00:45:49.001Z,99.90
2019-03-03T00:48:36.732Z,99.90
2019-03-03T00:51:31.940Z,99.90
2019-03-03T00:54:20.182Z,99.90
2019-03-03T00:56:59.807Z,99.90
2019-03-03T01:00:01.381Z,99.90
2019-03-03T01:02:45.222Z,99.90
2019-03-03T01:05:40.530Z,99.90
2019-03-03T01:08:28.057Z,99.90
2019-03-03T01:11:19.986Z,99.90
2019-03-03T01:14:24.415Z,99.90
2019-03-03T01:17:16.852Z,99.90
2019-03-03T01:19:58.030Z,99.90
2019-03-03T01:22:59.176Z,99.90
2019-03-03T01:25:29.337Z,99.90
2019-03-03T01:27:59.495Z,99.90
2019-03-03T01:30:29.737Z,99.90
2019-03-03T01:33:00.004Z,99.90
2019-03-03T01:35:30.154Z,99.90
2019-03-03T01:38:00.431Z,99.90
2019-03-03T01:40:30.647Z,99.90
2019-03-03T01:43:00.858Z,99.90
2019-03-03T01:45:31.088Z,99.90
2019-03-03T01:48:01.333Z,99.90
2019-03-03T01:50:31.549Z,99.90
2019-03-03T01:53:01.830Z,99.90
2019-03-03T01:55:32.040Z,99.90
2019-03-03T01:58:02.297Z,99.90
2019-03-03T02:00:32.761Z,99.90
2019-03-03T02:03:02.892Z,99.90
2019-03-03T02:05:33.144Z,99.90
2019-03-03T02:08:03.751Z,99.90
2019-03-03T02:10:33.910Z,99.90
2019-03-03T02:13:04.105Z,99.90
2019-03-03T02:15:34.330Z,99.90
2019-03-03T02:18:04.686Z,99.90
2019-03-03T02:20:34.984Z,99.90
2019-03-03T02:23:05.326Z,99.90
2019-03-03T02:25:35.731Z,99.90
2019-03-03T02:28:05.980Z,99.90
2019-03-03T02:30:36.273Z,99.90
2019-03-03T02:33:06.479Z,99.90
2019-03-03T02:35:36.664Z,99.90
2019-03-03T02:38:07.024Z,99.90
2019-03-03T02:40:37.230Z,99.90
2019-03-03T02:43:07.402Z,99.90
2019-03-03T02:45:37.684Z,99.90
2019-03-03T02:48:07.824Z,99.90
2019-03-03T02:50:38.045Z,99.90
2019-03-03T02:53:08.364Z,99.90
2019-03-03T02:55:38.581Z,99.90
2019-03-03T02:58:08.762Z,99.90
2019-03-03T03:00:44.047Z,99.90
2019-03-03T03:03:14.160Z,99.90
2019-03-03T03:06:04.565Z,99.90
2019-03-03T03:08:53.724Z,99.90
2019-03-03T03:11:32.138Z,99.90
2019-03-03T03:14:14.443Z,99.90
2019-03-03T03:17:12.620Z,99.90
2019-03-03T03:20:01.785Z,99.90
2019-03-03T03:22:49.728Z,99.90
2019-03-03T03:25:47.799Z,99.90
2019-03-03T03:28:36.861Z,99.90
2019-03-03T03:31:18.759Z,99.90
2019-03-03T03:34:08.021Z,99.90
2019-03-03T03:36:57.185Z,99.90
2019-03-03T03:39:33.332Z,99.90
2019-03-03T03:42:14.513Z,99.90
2019-03-03T03:45:09.218Z,99.90
2019-03-03T03:47:53.253Z,99.90
2019-03-03T03:50:45.503Z,99.90
2019-03-03T03:53:24.840Z,99.90
2019-03-03T03:56:14.002Z,99.90
2019-03-03T03:59:07.058Z,99.90
2019-03-03T04:01:49.157Z,99.90
2019-03-03T04:04:27.864Z,99.90
2019-03-03T04:07:15.204Z,99.90
2019-03-03T04:09:59.450Z,99.90
2019-03-03T04:12:57.526Z,99.90
2019-03-03T04:15:46.586Z,99.90
2019-03-03T04:18:32.685Z,99.90
2019-03-03T04:21:24.920Z,99.90
2019-03-03T04:24:16.848Z,99.90
2019-03-03T04:26:56.488Z,99.90
2019-03-03T04:30:03.780Z,99.90
2019-03-03T04:32:47.517Z,99.90
2019-03-03T04:35:25.316Z,99.90
2019-03-03T04:38:26.563Z,99.90
2019-03-03T04:41:15.627Z,99.90
2019-03-03T04:43:52.677Z,99.90
2019-03-03T04:46:40.650Z,99.90
2019-03-03T04:49:34.215Z,99.90
2019-03-03T04:52:26.042Z,99.90
2019-03-03T04:55:17.870Z,99.90
2019-03-03T04:58:10.210Z,99.90
2019-03-03T05:00:57.848Z,99.90
2019-03-03T05:03:33.793Z,99.90
2019-03-03T05:06:29.103Z,99.90
2019-03-03T05:09:17.141Z,99.90
2019-03-03T05:12:52.020Z,99.90
2019-03-03T05:15:40.324Z,99.90
2019-03-03T05:18:29.477Z,99.90
2019-03-03T05:20:59.751Z,99.90
2019-03-03T05:23:29.854Z,99.90
2019-03-03T05:26:00.098Z,99.90
2019-03-03T05:28:30.256Z,99.90
2019-03-03T05:31:00.455Z,99.90
2019-03-03T05:33:30.642Z,99.90
2019-03-03T05:36:00.865Z,99.90
2019-03-03T05:38:31.137Z,99.90
2019-03-03T05:41:01.353Z,99.90
2019-03-03T05:43:31.690Z,99.90
2019-03-03T05:46:01.964Z,99.90
2019-03-03T05:48:32.143Z,99.90
2019-03-03T05:51:02.401Z,99.90
2019-03-03T05:53:32.623Z,99.90
2019-03-03T05:56:02.857Z,99.90
2019-03-03T05:58:33.130Z,99.90
2019-03-03T06:01:03.313Z,99.90
2019-03-03T06:03:33.597Z,99.90
2019-03-03T06:06:03.977Z,99.90
2019-03-03T06:08:34.098Z,99.90
2019-03-03T06:11:04.443Z,99.90
2019-03-03T06:13:34.754Z,99.90
2019-03-03T06:16:05.605Z,99.90
2019-03-03T06:18:35.919Z,99.90
2019-03-03T06:21:07.938Z,99.90
2019-03-03T06:23:38.088Z,99.90
2019-03-03T06:26:09.033Z,99.90
2019-03-03T06:28:39.382Z,99.90
2019-03-03T06:31:09.530Z,99.90
2019-03-03T06:33:39.830Z,99.90
2019-03-03T06:36:10.134Z,99.90
2019-03-03T06:38:41.657Z,99.90
2019-03-03T06:41:13.958Z,99.90
2019-03-03T06:43:44.222Z,99.90
2019-03-03T06:46:14.438Z,99.90
2019-03-03T06:48:44.578Z,99.90
2019-03-03T06:51:14.780Z,99.90
2019-03-03T06:53:45.006Z,99.90
2019-03-03T06:56:15.198Z,99.90
2019-03-03T06:58:45.379Z,99.90
2019-03-03T07:01:15.566Z,99.90
2019-03-03T07:03:45.778Z,99.90
2019-03-03T07:06:16.345Z,99.90
2019-03-03T07:08:46.473Z,99.90
2019-03-03T07:11:16.690Z,99.90
2019-03-03T07:13:46.873Z,99.90
2019-03-03T07:16:17.039Z,99.90
2019-03-03T07:18:47.321Z,99.90
2019-03-03T07:21:17.522Z,99.90
2019-03-03T07:23:47.891Z,99.90
2019-03-03T07:26:18.074Z,99.90
2019-03-03T07:28:48.246Z,99.90
2019-03-03T07:31:18.510Z,99.90
2019-03-03T07:33:52.903Z,99.90
2019-03-03T07:36:23.144Z,99.90
2019-03-03T07:38:53.378Z,99.90
2019-03-03T07:41:23.537Z,99.90
2019-03-03T07:43:53.724Z,99.90
2019-03-03T07:46:24.030Z,99.90
2019-03-03T07:48:54.181Z,99.90
2019-03-03T07:51:24.030Z,99.90
2019-03-03T07:53:54.304Z,99.90
2019-03-03T07:56:24.413Z,99.90
2019-03-03T07:58:54.594Z,99.90
2019-03-03T08:01:24.750Z,99.90
2019-03-03T08:03:54.974Z,99.90
2019-03-03T08:06:25.366Z,99.90
2019-03-03T08:08:55.429Z,99.90
2019-03-03T08:11:25.708Z,99.90
2019-03-03T08:13:55.809Z,99.90
2019-03-03T08:16:26.089Z,99.90
2019-03-03T08:18:56.353Z,99.90
2019-03-03T08:21:26.474Z,99.90
2019-03-03T08:23:56.977Z,99.90
2019-03-03T08:26:27.217Z,99.90
2019-03-03T08:28:57.353Z,99.90
2019-03-03T08:31:27.560Z,99.90
2019-03-03T08:33:57.906Z,99.90
2019-03-03T08:36:28.250Z,99.90
2019-03-03T08:38:58.477Z,99.90
2019-03-03T08:41:28.762Z,99.90
2019-03-03T08:44:08.509Z,99.90
2019-03-03T08:46:54.697Z,99.90
2019-03-03T08:49:39.681Z,99.90
2019-03-03T08:52:33.230Z,99.90
2019-03-03T08:55:13.709Z,99.90
2019-03-03T08:58:01.745Z,99.90
2019-03-03T09:00:40.571Z,99.90
2019-03-03T09:03:34.548Z,99.90
2019-03-03T09:06:26.888Z,99.90
2019-03-03T09:09:11.021Z,99.90
2019-03-03T09:12:09.110Z,99.90
2019-03-03T09:15:10.664Z,99.90
2019-03-03T09:18:10.568Z,99.90
2019-03-03T09:20:58.622Z,99.90
2019-03-03T09:23:53.520Z,99.90
2019-03-03T09:26:41.661Z,99.90
2019-03-03T09:29:39.839Z,99.90
2019-03-03T09:32:37.486Z,99.90
2019-03-03T09:35:29.845Z,99.90
2019-03-03T09:38:09.576Z,99.90
2019-03-03T09:40:46.423Z,99.90
2019-03-03T09:43:41.364Z,99.90
2019-03-03T09:46:29.299Z,99.60
2019-03-03T09:49:27.374Z,99.90
2019-03-03T09:52:14.698Z,96.50
2019-03-03T09:54:52.343Z,95.70
2019-03-03T09:57:53.435Z,96.00
2019-03-03T10:00:44.586Z,97.00
2019-03-03T10:03:53.578Z,96.10
2019-03-03T10:06:43.567Z,95.70
2019-03-03T10:09:50.265Z,94.60
2019-03-03T10:12:31.112Z,91.90
2019-03-03T10:15:21.527Z,89.90
2019-03-03T10:18:10.773Z,91.00
2019-03-03T10:20:57.683Z,88.40
2019-03-03T10:23:46.746Z,87.80
2019-03-03T10:26:24.954Z,91.00
2019-03-03T10:29:09.822Z,89.00
2019-03-03T10:32:01.954Z,85.60
2019-03-03T10:34:51.015Z,87.80
2019-03-03T10:37:38.439Z,85.40
2019-03-03T10:40:28.320Z,82.10
2019-03-03T10:43:06.121Z,87.40
2019-03-03T10:45:52.959Z,76.30
2019-03-03T10:48:41.992Z,75.50
2019-03-03T10:51:29.928Z,80.00
2019-03-03T10:54:18.071Z,82.00
2019-03-03T10:57:10.410Z,78.70
2019-03-03T10:59:54.960Z,83.00
2019-03-03T11:02:51.815Z,80.50
2019-03-03T11:05:50.192Z,79.10
2019-03-03T11:08:42.429Z,74.10
2019-03-03T11:11:31.597Z,77.30
2019-03-03T11:14:20.763Z,72.50
2019-03-03T11:17:03.577Z,71.20
2019-03-03T11:20:01.655Z,73.20
2019-03-03T11:22:45.887Z,73.80
2019-03-03T11:25:34.248Z,69.10
2019-03-03T11:28:26.382Z,65.90
2019-03-03T11:31:06.543Z,63.60
2019-03-03T11:33:54.472Z,65.60
2019-03-03T11:36:35.975Z,65.60
2019-03-03T11:39:35.569Z,63.10
2019-03-03T11:42:24.019Z,59.70
2019-03-03T11:45:19.837Z,54.70
2019-03-03T11:48:07.757Z,56.10
2019-03-03T11:51:15.277Z,55.80
2019-03-03T11:53:51.736Z,53.60
2019-03-03T11:56:39.572Z,53.40
2019-03-03T11:59:27.508Z,51.80
2019-03-03T12:02:15.137Z,49.70
2019-03-03T12:05:07.169Z,48.30
2019-03-03T12:07:44.599Z,46.70
2019-03-03T12:10:40.072Z,49.70
2019-03-03T12:13:47.362Z,50.00
2019-03-03T12:16:36.627Z,49.50
2019-03-03T12:19:21.906Z,49.40
2019-03-03T12:22:02.058Z,47.80
2019-03-03T12:24:40.368Z,47.10
2019-03-03T12:27:28.917Z,47.20
2019-03-03T12:30:20.439Z,46.50
2019-03-03T12:33:18.614Z,45.90
2019-03-03T12:36:06.963Z,46.30
2019-03-03T12:38:51.825Z,45.70
2019-03-03T12:41:40.992Z,46.70
2019-03-03T12:44:30.159Z,45.80
2019-03-03T12:47:28.232Z,46.80
2019-03-03T12:50:29.785Z,46.60
2019-03-03T12:53:37.278Z,44.70
2019-03-03T12:56:24.586Z,42.50
2019-03-03T12:59:05.769Z,42.30
2019-03-03T13:01:57.914Z,42.80
2019-03-03T13:04:47.080Z,42.00
2019-03-03T13:07:45.860Z,42.70
2019-03-03T13:10:53.570Z,45.30
2019-03-03T13:13:42.838Z,44.20
2019-03-03T13:16:30.693Z,44.40
2019-03-03T13:19:20.147Z,44.20
2019-03-03T13:22:13.918Z,43.10
2019-03-03T13:25:09.534Z,42.00
2019-03-03T13:27:50.490Z,43.80
2019-03-03T13:30:55.441Z,42.90
2019-03-03T13:33:54.473Z,41.50
2019-03-03T13:36:49.848Z,40.30
2019-03-03T13:39:38.090Z,38.80
2019-03-03T13:42:26.130Z,42.00
2019-03-03T13:44:57.669Z,40.70
2019-03-03T13:47:28.625Z,39.40
2019-03-03T13:50:01.814Z,41.10
2019-03-03T13:52:32.466Z,40.80
2019-03-03T13:55:03.252Z,42.00
2019-03-03T13:57:35.115Z,39.80
2019-03-03T14:00:09.340Z,37.80
2019-03-03T14:02:42.373Z,39.50
2019-03-03T14:05:13.376Z,40.40
2019-03-03T14:07:44.047Z,41.50
2019-03-03T14:10:15.439Z,40.50
2019-03-03T14:12:46.097Z,39.10
2019-03-03T14:15:18.524Z,38.50
2019-03-03T14:17:50.328Z,39.00
2019-03-03T14:20:21.920Z,39.00
2019-03-03T14:22:53.680Z,40.10
2019-03-03T14:25:23.917Z,40.30
2019-03-03T14:27:54.198Z,41.60
2019-03-03T14:30:25.627Z,42.20
2019-03-03T14:32:56.047Z,43.00
2019-03-03T14:35:26.268Z,42.40
2019-03-03T14:37:57.110Z,42.90
2019-03-03T14:40:27.428Z,42.70
2019-03-03T14:42:57.706Z,42.00
2019-03-03T14:45:28.175Z,42.20
2019-03-03T14:47:58.426Z,43.40
2019-03-03T14:50:28.716Z,42.50
2019-03-03T14:52:59.217Z,41.90
2019-03-03T14:55:29.399Z,43.00
2019-03-03T14:57:59.716Z,43.80
2019-03-03T15:00:31.986Z,42.60
2019-03-03T15:03:03.643Z,42.70
2019-03-03T15:05:34.581Z,41.10
2019-03-03T15:08:04.767Z,41.30
2019-03-03T15:10:35.055Z,40.40
2019-03-03T15:13:05.370Z,39.10
2019-03-03T15:15:35.996Z,38.50
2019-03-03T15:18:06.366Z,37.70
2019-03-03T15:20:36.922Z,39.80
2019-03-03T15:23:07.118Z,41.70
2019-03-03T15:25:37.390Z,42.50
2019-03-03T15:28:07.607Z,44.10
2019-03-03T15:30:37.862Z,45.00
2019-03-03T15:33:08.112Z,46.20
2019-03-03T15:35:38.428Z,46.70
2019-03-03T15:38:08.926Z,47.60
2019-03-03T15:40:39.337Z,48.30
2019-03-03T15:43:09.565Z,48.70
2019-03-03T15:45:41.156Z,48.80
2019-03-03T15:48:11.419Z,48.00
2019-03-03T15:50:41.811Z,47.60
2019-03-03T15:53:12.040Z,46.40
2019-03-03T15:55:42.354Z,46.40
2019-03-03T15:58:14.261Z,46.30
2019-03-03T16:00:45.809Z,45.20
2019-03-03T16:03:16.977Z,43.20
2019-03-03T16:05:48.091Z,41.50
2019-03-03T16:08:19.014Z,41.70
2019-03-03T16:10:53.344Z,42.90
2019-03-03T16:13:26.478Z,42.70
2019-03-03T16:15:58.362Z,41.40
2019-03-03T16:18:29.787Z,41.10
2019-03-03T16:21:01.407Z,41.50
2019-03-03T16:23:32.757Z,42.30
2019-03-03T16:26:04.404Z,44.50
2019-03-03T16:28:35.720Z,45.60
2019-03-03T16:31:07.497Z,47.10
2019-03-03T16:33:41.492Z,48.40
2019-03-03T16:36:13.322Z,49.70
2019-03-03T16:38:44.853Z,50.90
2019-03-03T16:41:16.320Z,51.70
2019-03-03T16:43:47.762Z,53.40
2019-03-03T16:46:19.475Z,54.20
2019-03-03T16:48:51.710Z,54.90
2019-03-03T16:51:23.617Z,56.20
2019-03-03T16:53:56.413Z,58.00
2019-03-03T16:56:28.974Z,59.60
2019-03-03T16:59:00.857Z,60.30
2019-03-03T17:01:32.205Z,62.00
2019-03-03T17:04:05.143Z,61.30
2019-03-03T17:06:36.942Z,63.40
2019-03-03T17:09:09.539Z,64.90
2019-03-03T17:11:41.639Z,67.30
2019-03-03T17:14:13.707Z,70.30
2019-03-03T17:16:50.466Z,70.50
2019-03-03T17:19:23.418Z,70.80
2019-03-03T17:21:55.470Z,71.40
2019-03-03T17:24:28.273Z,73.50
2019-03-03T17:27:02.491Z,75.30
2019-03-03T17:29:34.013Z,74.80
2019-03-03T17:32:08.561Z,76.40
2019-03-03T17:34:40.161Z,80.80
2019-03-03T17:37:11.763Z,85.10
2019-03-03T17:39:44.586Z,85.20
2019-03-03T17:42:16.341Z,83.90
2019-03-03T17:44:47.875Z,84.70
2019-03-03T17:47:19.419Z,86.30
2019-03-03T17:49:51.140Z,85.20
2019-03-03T17:52:23.508Z,89.70
2019-03-03T17:54:54.717Z,91.40
2019-03-03T17:57:26.292Z,92.50
2019-03-03T17:59:57.706Z,93.70
2019-03-03T18:02:29.334Z,96.80
2019-03-03T18:05:01.098Z,98.30
2019-03-03T18:07:32.461Z,99.80
2019-03-03T18:10:05.227Z,99.90
2019-03-03T18:12:36.681Z,99.90
2019-03-03T18:15:08.528Z,99.90
2019-03-03T18:17:39.524Z,99.90
2019-03-03T18:20:12.490Z,99.90
2019-03-03T18:22:44.531Z,99.90
2019-03-03T18:25:16.994Z,99.90
2019-03-03T18:27:48.759Z,99.90
2019-03-03T18:30:21.099Z,99.90
2019-03-03T18:32:52.591Z,99.90
2019-03-03T18:35:24.197Z,99.90
2019-03-03T18:37:57.777Z,99.90
2019-03-03T18:40:32.582Z,99.90
2019-03-03T18:43:04.867Z,99.90
2019-03-03T18:45:35.736Z,99.90
2019-03-03T18:48:06.718Z,99.90
2019-03-03T18:50:37.403Z,99.30
2019-03-03T18:53:07.964Z,97.40
2019-03-03T18:55:38.414Z,95.50
2019-03-03T18:58:08.829Z,96.20
2019-03-03T19:00:45.669Z,96.20
2019-03-03T19:03:21.703Z,96.00
2019-03-03T19:05:55.997Z,99.60
2019-03-03T19:08:41.328Z,99.90
2019-03-03T19:11:15.895Z,99.90
2019-03-03T19:13:47.622Z,99.90
2019-03-03T19:16:19.995Z,99.90
2019-03-03T19:18:51.788Z,99.90
2019-03-03T19:21:22.248Z,99.90
2019-03-03T19:23:53.169Z,99.90
2019-03-03T19:26:23.655Z,99.90
2019-03-03T19:28:57.275Z,99.90
2019-03-03T19:31:29.464Z,99.90
2019-03-03T19:34:00.938Z,99.90
2019-03-03T19:36:33.710Z,99.90
2019-03-03T19:39:05.930Z,99.90
2019-03-03T19:41:36.648Z,99.90
2019-03-03T19:44:07.869Z,99.90
2019-03-03T19:46:40.596Z,99.90
2019-03-03T19:49:11.965Z,99.90
2019-03-03T19:51:43.301Z,99.90
2019-03-03T19:54:13.973Z,99.90
2019-03-03T19:56:47.313Z,99.90
2019-03-03T19:59:18.232Z,99.90
2019-03-03T20:01:49.425Z,99.90
2019-03-03T20:04:20.549Z,99.90
2019-03-03T20:06:52.073Z,99.90
2019-03-03T20:09:23.310Z,99.90
2019-03-03T20:11:54.012Z,99.90
2019-03-03T20:14:24.668Z,99.90
2019-03-03T20:16:56.110Z,99.90
2019-03-03T20:19:26.331Z,99.90
2019-03-03T20:21:56.853Z,99.90
2019-03-03T20:24:27.049Z,99.90
2019-03-03T20:26:57.425Z,99.90
2019-03-03T20:29:27.694Z,99.90
2019-03-03T20:31:57.869Z,99.90
2019-03-03T20:34:28.123Z,99.90
2019-03-03T20:36:58.512Z,99.90
2019-03-03T20:39:28.900Z,99.90
2019-03-03T20:41:59.063Z,99.90
2019-03-03T20:44:29.375Z,99.90
2019-03-03T20:46:59.653Z,99.30
2019-03-03T20:49:30.139Z,99.90
2019-03-03T20:52:03.019Z,99.90
2019-03-03T20:54:33.399Z,99.90
2019-03-03T20:57:03.569Z,99.90
2019-03-03T20:59:33.943Z,99.90
2019-03-03T21:02:04.617Z,99.90
2019-03-03T21:04:34.840Z,99.90
2019-03-03T21:07:05.251Z,99.90
2019-03-03T21:09:35.521Z,99.90
2019-03-03T21:12:05.686Z,99.90
2019-03-03T21:14:36.028Z,99.90
2019-03-03T21:17:06.292Z,99.90
2019-03-03T21:19:36.574Z,99.90
2019-03-03T21:22:06.849Z,99.90
2019-03-03T21:24:37.063Z,99.90
2019-03-03T21:27:07.266Z,99.90
2019-03-03T21:29:37.509Z,99.90
2019-03-03T21:32:07.680Z,99.90
2019-03-03T21:34:37.719Z,99.90
2019-03-03T21:37:07.950Z,99.90
2019-03-03T21:39:38.137Z,99.90
2019-03-03T21:42:08.402Z,99.90
2019-03-03T21:44:38.622Z,99.90
2019-03-03T21:47:08.783Z,99.90
2019-03-03T21:49:38.946Z,99.90
2019-03-03T21:52:09.185Z,99.90
2019-03-03T21:54:39.392Z,99.90
2019-03-03T21:57:09.510Z,99.90
2019-03-03T21:59:39.810Z,99.90
2019-03-03T22:02:09.891Z,99.90
2019-03-03T22:04:40.186Z,99.90
2019-03-03T22:07:10.465Z,99.90
2019-03-03T22:09:40.689Z,99.90
2019-03-03T22:12:10.771Z,99.90
2019-03-03T22:14:41.102Z,99.90
2019-03-03T22:17:11.224Z,99.90
2019-03-03T22:19:41.345Z,99.90
2019-03-03T22:22:11.675Z,99.90
2019-03-03T22:24:41.838Z,99.90
2019-03-03T22:27:12.808Z,99.90
2019-03-03T22:29:43.205Z,99.90
2019-03-03T22:32:13.373Z,99.90
2019-03-03T22:34:43.534Z,99.90
2019-03-03T22:37:13.817Z,99.90
2019-03-03T22:39:43.939Z,99.90
2019-03-03T22:42:14.102Z,99.90
2019-03-03T22:44:44.381Z,99.90
2019-03-03T22:47:14.512Z,99.90
2019-03-03T22:49:44.679Z,99.90
2019-03-03T22:52:14.926Z,99.90
2019-03-03T22:54:45.077Z,99.90
2019-03-03T22:57:15.271Z,99.90
2019-03-03T22:59:45.496Z,99.90
2019-03-03T23:02:16.869Z,99.90
2019-03-03T23:05:20.559Z,99.90
2019-03-03T23:08:13.937Z,99.90
2019-03-03T23:11:40.273Z,99.90
2019-03-03T23:14:33.579Z,99.90
2019-03-03T23:17:56.904Z,99.90
2019-03-03T23:20:36.573Z,99.90
2019-03-03T23:24:00.001Z,99.90
2019-03-03T23:26:30.274Z,99.90
2019-03-03T23:29:00.433Z,99.90
2019-03-03T23:31:30.617Z,99.90
2019-03-03T23:34:00.830Z,99.90
2019-03-03T23:36:31.060Z,99.90
2019-03-03T23:39:01.127Z,99.90
2019-03-03T23:41:31.387Z,99.90
2019-03-03T23:44:01.499Z,99.90
2019-03-03T23:46:31.718Z,99.90
2019-03-03T23:49:01.916Z,99.90
2019-03-03T23:51:32.073Z,99.90
2019-03-03T23:54:02.465Z,99.90
2019-03-03T23:56:32.539Z,99.90
2019-03-03T23:59:02.723Z,99.90
